Time;durP1;ratioP1;P1;durP2;ratioP2;P2;SDS_P1;SDS_P2;PMS_P1;PMS_P2;Temp;Humidity;BMP_temperature;BMP_pressure;BME280_temperature;BME280_humidity;BME280_pressure;Samples;Min_cycle;Max_cycle;Signal;HPM_P1;HPM_P2
2023/08/01 06:08:22;;;;;;;17.88;10.85;;;;;;;;;;5093539;27;20399;-73
2023/08/01 06:11:06;;;;;;;16.00;9.98;;;16.40;99.90;;;;;;5083759;28;20386;-70
2023/08/01 06:13:51;;;;;;;15.02;9.18;;;16.70;99.90;;;;;;5074419;28;20394;-70
2023/08/01 06:16:36;;;;;;;12.93;8.47;;;16.40;99.90;;;;;;5081245;28;20425;-71
2023/08/01 06:19:20;;;;;;;14.20;8.20;;;16.60;99.90;;;;;;5076808;28;20453;-68
2023/08/01 06:22:04;;;;;;;12.33;7.57;;;16.60;99.90;;;;;;5074034;28;20442;-71
2023/08/01 06:24:48;;;;;;;13.23;7.32;;;16.70;99.90;;;;;;5084363;28;20418;-71
2023/08/01 06:27:32;;;;;;;12.93;7.10;;;16.80;99.90;;;;;;5088847;28;20393;-71
2023/08/01 06:30:16;;;;;;;10.00;6.80;;;16.80;99.90;;;;;;5079123;28;20401;-71
2023/08/01 06:33:01;;;;;;;12.37;6.50;;;16.80;99.90;;;;;;5078020;28;20394;-70
2023/08/01 06:35:45;;;;;;;12.63;6.30;;;16.90;99.90;;;;;;5084024;28;20409;-69
2023/08/01 06:38:29;;;;;;;10.00;6.07;;;16.90;99.90;;;;;;5078299;28;20396;-70
2023/08/01 06:41:13;;;;;;;11.00;4.50;;;16.90;99.90;;;;;;5071401;28;20421;-71
2023/08/01 06:43:57;;;;;;;8.95;4.97;;;16.90;99.90;;;;;;5077900;28;20200;-70
2023/08/01 06:46:41;;;;;;;9.70;4.18;;;16.90;99.90;;;;;;5075655;28;20198;-71
2023/08/01 06:49:25;;;;;;;8.55;5.00;;;16.90;99.90;;;;;;5070996;28;20458;-71
2023/08/01 06:52:09;;;;;;;6.00;3.95;;;16.90;99.90;;;;;;5079749;28;20190;-71
2023/08/01 06:54:53;;;;;;;8.30;3.65;;;16.80;99.90;;;;;;5078949;28;20240;-71
2023/08/01 06:57:37;;;;;;;6.28;3.60;;;16.70;99.90;;;;;;5081000;28;20232;-71
2023/08/01 07:00:21;;;;;;;6.43;3.33;;;16.70;99.90;;;;;;5077570;28;20295;-71
2023/08/01 07:03:05;;;;;;;4.43;3.25;;;16.70;99.90;;;;;;5076188;28;20246;-70
2023/08/01 07:05:49;;;;;;;9.05;4.05;;;16.60;99.90;;;;;;5077236;28;20224;-71
2023/08/01 07:08:34;;;;;;;7.22;4.03;;;16.60;99.90;;;;;;5075525;28;20213;-69
2023/08/01 07:11:18;;;;;;;7.40;3.80;;;16.60;99.90;;;;;;5081078;28;20185;-71
2023/08/01 07:14:03;;;;;;;8.55;4.18;;;16.50;99.90;;;;;;5088603;28;20407;-69
2023/08/01 07:16:47;;;;;;;5.05;3.22;;;16.60;99.90;;;;;;5084742;28;20209;-72
2023/08/01 07:19:31;;;;;;;7.70;4.53;;;16.50;99.90;;;;;;5073488;28;20499;-69
2023/08/01 07:22:15;;;;;;;6.20;3.78;;;16.60;99.90;;;;;;5066140;28;20185;-70
2023/08/01 07:24:59;;;;;;;3.60;3.17;;;16.60;99.90;;;;;;5065046;28;20240;-71
2023/08/01 07:27:43;;;;;;;3.67;3.30;;;16.60;99.90;;;;;;5069423;28;20260;-70
2023/08/01 07:30:28;;;;;;;10.98;4.07;;;16.60;99.90;;;;;;5070674;28;20271;-69
2023/08/01 07:33:12;;;;;;;5.70;3.55;;;16.60;99.90;;;;;;5057217;28;20407;-71
2023/08/01 07:35:56;;;;;;;4.13;2.95;;;16.60;99.90;;;;;;5067390;28;20657;-70
2023/08/01 07:38:41;;;;;;;5.20;3.30;;;16.70;99.90;;;;;;5068121;28;20233;-69
2023/08/01 07:41:25;;;;;;;6.30;3.67;;;16.70;99.90;;;;;;5067619;28;20260;-70
2023/08/01 07:44:09;;;;;;;5.72;3.90;;;16.80;99.90;;;;;;5065836;28;20182;-68
2023/08/01 07:46:53;;;;;;;4.78;3.45;;;16.80;99.90;;;;;;5070221;28;20259;-71
2023/08/01 07:49:37;;;;;;;5.78;3.97;;;16.80;99.90;;;;;;5064254;28;20217;-71
2023/08/01 07:52:21;;;;;;;6.00;3.70;;;16.80;99.90;;;;;;5069672;28;20669;-71
2023/08/01 07:55:05;;;;;;;7.65;4.00;;;16.80;99.90;;;;;;5066655;28;20189;-69
2023/08/01 07:57:50;;;;;;;8.55;4.95;;;16.80;99.90;;;;;;5066051;28;20314;-72
2023/08/01 08:00:37;;;;;;;7.22;4.80;;;16.90;99.90;;;;;;5062359;28;20189;-72
2023/08/01 08:03:23;;;;;;;8.70;5.25;;;17.00;99.90;;;;;;5063771;28;20430;-73
2023/08/01 08:06:07;;;;;;;8.85;4.78;;;17.10;99.90;;;;;;5064905;28;20191;-70
2023/08/01 08:08:51;;;;;;;9.65;4.88;;;17.10;99.90;;;;;;5064353;28;20394;-72
2023/08/01 08:11:36;;;;;;;9.18;4.40;;;17.30;99.90;;;;;;5066830;28;20186;-71
2023/08/01 08:14:21;;;;;;;7.53;4.05;;;17.40;99.90;;;;;;5063473;28;20188;-71
2023/08/01 08:17:05;;;;;;;6.47;3.47;;;17.40;99.90;;;;;;5064576;28;20704;-70
2023/08/01 08:19:49;;;;;;;4.13;3.33;;;17.40;99.90;;;;;;5064025;28;20277;-69
2023/08/01 08:22:34;;;;;;;12.38;4.20;;;17.40;99.90;;;;;;5064714;28;20253;-71
2023/08/01 08:25:18;;;;;;;8.52;3.40;;;17.40;99.90;;;;;;5066551;28;20264;-69
2023/08/01 08:28:02;;;;;;;5.30;3.10;;;17.40;99.90;;;;;;5065057;28;20731;-70
2023/08/01 08:30:47;;;;;;;4.28;2.70;;;17.40;99.90;;;;;;5060545;28;20201;-71
2023/08/01 08:33:31;;;;;;;4.18;2.53;;;17.40;99.90;;;;;;5067500;28;20708;-71
2023/08/01 08:36:15;;;;;;;4.07;2.67;;;17.50;99.90;;;;;;5065657;28;20652;-72
2023/08/01 08:39:00;;;;;;;5.18;2.80;;;17.50;99.90;;;;;;5066323;28;20752;-70
2023/08/01 08:41:51;;;;;;;3.38;2.05;;;17.60;99.90;;;;;;5066091;28;20198;-72
2023/08/01 08:44:43;;;;;;;3.03;1.90;;;17.70;99.90;;;;;;5065574;28;20262;-70
2023/08/01 08:47:28;;;;;;;3.22;2.25;;;17.80;99.90;;;;;;5066048;28;20210;-69
2023/08/01 08:50:12;;;;;;;2.42;2.00;;;17.80;99.90;;;;;;5065087;28;20245;-71
2023/08/01 08:52:57;;;;;;;4.35;1.80;;;17.90;99.90;;;;;;5065942;28;20228;-71
2023/08/01 08:55:42;;;;;;;3.50;1.90;;;17.90;99.90;;;;;;5066224;28;20209;-71
2023/08/01 08:58:28;;;;;;;4.65;1.38;;;17.90;99.90;;;;;;5063738;28;20214;-71
2023/08/01 09:01:13;;;;;;;2.17;1.40;;;17.90;99.90;;;;;;5059245;28;20268;-69
2023/08/01 09:03:58;;;;;;;3.22;1.65;;;18.00;99.90;;;;;;5064331;28;20553;-69
2023/08/01 09:06:48;;;;;;;7.43;1.88;;;18.00;99.90;;;;;;5064827;28;20217;-70
2023/08/01 09:09:33;;;;;;;3.58;1.70;;;18.00;99.90;;;;;;5065392;28;20226;-71
2023/08/01 09:12:17;;;;;;;2.90;1.60;;;18.10;99.90;;;;;;5064992;28;20270;-72
2023/08/01 09:15:01;;;;;;;4.43;1.90;;;18.10;99.90;;;;;;5064274;28;20406;-70
2023/08/01 09:17:55;;;;;;;3.90;1.60;;;18.20;99.90;;;;;;5065038;28;20220;-71
2023/08/01 09:20:47;;;;;;;2.97;1.75;;;18.30;99.90;;;;;;5063037;28;20206;-72
2023/08/01 09:23:32;;;;;;;3.65;1.83;;;18.20;99.90;;;;;;5061049;28;20455;-69
2023/08/01 09:26:18;;;;;;;2.78;1.60;;;18.30;99.90;;;;;;5065513;28;20210;-71
2023/08/01 09:29:03;;;;;;;4.10;1.38;;;18.30;99.90;;;;;;5064741;28;20217;-71
2023/08/01 09:31:49;;;;;;;3.63;2.10;;;18.30;99.90;;;;;;5059887;28;20410;-72
2023/08/01 09:34:33;;;;;;;5.43;1.58;;;18.30;99.90;;;;;;5063289;28;20186;-70
2023/08/01 09:37:17;;;;;;;4.10;1.88;;;18.30;99.90;;;;;;5064046;28;20463;-72
2023/08/01 09:40:01;;;;;;;5.95;1.60;;;18.30;99.90;;;;;;5063706;28;20233;-71
2023/08/01 09:42:46;;;;;;;3.83;1.90;;;18.30;99.90;;;;;;5065658;28;20186;-70
2023/08/01 09:45:30;;;;;;;3.25;1.55;;;18.30;99.90;;;;;;5064291;28;20263;-72
2023/08/01 09:48:25;;;;;;;5.57;2.25;;;18.40;99.90;;;;;;5064546;28;20286;-69
2023/08/01 09:51:12;;;;;;;4.10;2.33;;;18.40;99.90;;;;;;5066508;28;20236;-71
2023/08/01 09:53:56;;;;;;;4.30;1.92;;;18.50;99.90;;;;;;5064528;28;20255;-73
2023/08/01 09:56:44;;;;;;;2.35;1.73;;;18.50;99.90;;;;;;5063997;28;20210;-69
2023/08/01 09:59:30;;;;;;;2.17;1.48;;;18.60;99.90;;;;;;5063583;28;20198;-72
2023/08/01 10:02:17;;;;;;;3.08;1.48;;;18.60;99.90;;;;;;5063931;28;20217;-71
2023/08/01 10:05:03;;;;;;;3.25;1.60;;;18.60;99.90;;;;;;5064468;28;20193;-71
2023/08/01 10:07:51;;;;;;;2.55;1.40;;;18.60;99.90;;;;;;5063684;28;20225;-71
2023/08/01 10:10:35;;;;;;;3.58;1.63;;;18.60;99.90;;;;;;5063978;28;20240;-70
2023/08/01 10:13:23;;;;;;;2.75;1.20;;;18.60;99.90;;;;;;5065235;28;20225;-72
2023/08/01 10:16:08;;;;;;;3.67;1.45;;;18.50;99.90;;;;;;5062422;28;20214;-72
2023/08/01 10:18:53;;;;;;;1.95;1.23;;;18.50;99.90;;;;;;5063368;28;20717;-70
2023/08/01 10:21:39;;;;;;;3.08;1.30;;;18.50;99.90;;;;;;5062219;28;20200;-72
2023/08/01 10:24:26;;;;;;;2.35;1.10;;;18.50;99.90;;;;;;5065504;28;20209;-70
2023/08/01 10:27:14;;;;;;;2.13;1.27;;;18.60;99.90;;;;;;5063724;28;20313;-72
2023/08/01 10:30:00;;;;;;;2.95;1.25;;;18.60;99.90;;;;;;5061353;28;20678;-71
2023/08/01 10:32:44;;;;;;;2.58;1.13;;;18.60;99.90;;;;;;5058665;28;20205;-71
2023/08/01 10:35:36;;;;;;;2.42;1.10;;;18.60;99.90;;;;;;5062990;28;20189;-71
2023/08/01 10:38:20;;;;;;;2.25;1.20;;;18.70;99.90;;;;;;5064666;28;20944;-69
2023/08/01 10:41:04;;;;;;;4.25;1.20;;;18.70;99.90;;;;;;5064368;28;20236;-69
2023/08/01 10:43:48;;;;;;;4.07;1.70;;;18.90;99.90;;;;;;5062679;28;20186;-72
2023/08/01 10:46:52;;;;;;;3.58;1.55;;;18.90;99.90;;;;;;5062846;28;20219;-69
2023/08/01 10:49:44;;;;;;;1.88;1.25;;;19.00;99.90;;;;;;5061483;28;20194;-71
2023/08/01 10:52:28;;;;;;;5.88;1.77;;;19.00;99.90;;;;;;5062995;28;20201;-71
2023/08/01 10:55:12;;;;;;;5.68;1.70;;;18.90;99.90;;;;;;5063406;28;20258;-72
2023/08/01 10:57:57;;;;;;;8.68;1.58;;;18.90;99.90;;;;;;5066402;28;20245;-72
2023/08/01 11:00:44;;;;;;;2.67;1.70;;;18.90;99.90;;;;;;5061735;28;20187;-72
2023/08/01 11:03:39;;;;;;;4.68;1.85;;;18.80;99.90;;;;;;5063187;28;20193;-73
2023/08/01 11:06:24;;;;;;;5.07;2.00;;;18.70;99.90;;;;;;5066381;28;20814;-72
2023/08/01 11:09:18;;;;;;;3.30;1.75;;;18.60;99.90;;;;;;5064953;28;20215;-72
2023/08/01 11:12:04;;;;;;;6.85;2.00;;;18.50;99.90;;;;;;5065404;28;20182;-72
2023/08/01 11:14:49;;;;;;;3.85;1.67;;;18.40;99.90;;;;;;5068094;28;20194;-72
2023/08/01 11:17:35;;;;;;;4.30;2.03;;;18.30;99.90;;;;;;5062703;28;20221;-73
2023/08/01 11:20:21;;;;;;;3.72;1.60;;;18.10;99.90;;;;;;5065941;28;20198;-72
2023/08/01 11:23:06;;;;;;;7.82;2.38;;;18.00;99.90;;;;;;5064392;28;20206;-69
2023/08/01 11:25:50;;;;;;;5.10;2.28;;;18.00;99.90;;;;;;5062725;28;20194;-72
2023/08/01 11:28:35;;;;;;;5.38;2.00;;;17.90;99.90;;;;;;5065584;28;20217;-72
2023/08/01 11:31:19;;;;;;;3.50;2.20;;;17.90;99.90;;;;;;5066365;28;20189;-71
2023/08/01 11:34:03;;;;;;;5.43;2.53;;;17.90;99.90;;;;;;5060947;28;20217;-70
2023/08/01 11:36:48;;;;;;;4.45;2.22;;;17.90;99.90;;;;;;5062420;28;20212;-72
2023/08/01 11:39:34;;;;;;;5.03;2.85;;;17.90;99.90;;;;;;5065394;28;20224;-72
2023/08/01 11:42:18;;;;;;;4.60;2.70;;;18.00;99.90;;;;;;5063392;28;20221;-72
2023/08/01 11:45:10;;;;;;;5.53;2.67;;;18.00;99.90;;;;;;5064493;28;20209;-71
2023/08/01 11:47:54;;;;;;;5.70;1.85;;;18.00;99.90;;;;;;5067865;28;20264;-71
2023/08/01 11:50:39;;;;;;;5.25;2.00;;;18.00;99.90;;;;;;5065461;28;20313;-72
2023/08/01 11:53:23;;;;;;;4.43;2.35;;;17.90;99.90;;;;;;5064506;28;20244;-71
2023/08/01 11:56:08;;;;;;;4.95;1.80;;;18.00;99.90;;;;;;5064721;28;20213;-69
2023/08/01 11:59:02;;;;;;;2.92;1.63;;;18.10;99.90;;;;;;5065561;28;20224;-72
2023/08/01 12:01:48;;;;;;;4.07;2.13;;;18.20;99.90;;;;;;5064914;28;20283;-71
2023/08/01 12:04:32;;;;;;;5.03;1.92;;;18.30;99.90;;;;;;5065722;28;20190;-71
2023/08/01 12:07:17;;;;;;;4.57;1.77;;;18.40;99.90;;;;;;5064717;28;20214;-71
2023/08/01 12:10:02;;;;;;;3.88;1.52;;;18.40;99.90;;;;;;5065574;28;20186;-71
2023/08/01 12:12:48;;;;;;;2.65;1.50;;;18.50;99.90;;;;;;5066580;28;20247;-71
2023/08/01 12:15:32;;;;;;;4.93;1.60;;;18.60;99.90;;;;;;5063341;28;20229;-72
2023/08/01 12:18:24;;;;;;;2.42;1.40;;;18.70;99.90;;;;;;5064149;28;20241;-72
2023/08/01 12:21:09;;;;;;;4.20;1.58;;;18.60;99.90;;;;;;5066343;28;20239;-71
2023/08/01 12:23:56;;;;;;;2.20;1.30;;;18.60;99.90;;;;;;5067018;28;20213;-70
2023/08/01 12:26:40;;;;;;;3.20;1.20;;;18.60;99.90;;;;;;5065057;28;20252;-72
2023/08/01 12:29:24;;;;;;;4.63;1.10;;;18.60;99.90;;;;;;5066212;28;20210;-74
2023/08/01 12:32:09;;;;;;;2.30;1.17;;;18.60;99.90;;;;;;5066040;28;20674;-72
2023/08/01 12:34:53;;;;;;;3.75;1.25;;;18.60;99.90;;;;;;5060645;28;20752;-70
2023/08/01 12:37:37;;;;;;;6.20;1.60;;;18.60;99.90;;;;;;5065779;28;20245;-72
2023/08/01 12:40:21;;;;;;;3.75;1.38;;;18.70;99.90;;;;;;5066279;28;20728;-73
2023/08/01 12:43:06;;;;;;;4.72;1.40;;;18.80;99.90;;;;;;5065721;28;20208;-72
2023/08/01 12:45:50;;;;;;;2.50;1.10;;;18.90;99.90;;;;;;5067301;28;20178;-71
2023/08/01 12:48:34;;;;;;;1.30;0.98;;;19.00;99.90;;;;;;5064210;28;20218;-72
2023/08/01 12:51:18;;;;;;;3.35;1.30;;;19.00;99.90;;;;;;5066489;28;20244;-73
2023/08/01 12:54:02;;;;;;;2.40;1.10;;;19.10;99.90;;;;;;5066462;28;20652;-73
2023/08/01 12:56:46;;;;;;;3.22;1.40;;;19.10;99.90;;;;;;5062825;28;20225;-72
2023/08/01 12:59:30;;;;;;;3.05;1.13;;;19.10;99.90;;;;;;5069331;28;20239;-72
2023/08/01 13:02:14;;;;;;;4.07;1.27;;;19.10;99.90;;;;;;5063718;28;20273;-74
2023/08/01 13:04:58;;;;;;;3.03;1.15;;;19.10;99.90;;;;;;5065144;28;20228;-71
2023/08/01 13:07:43;;;;;;;3.65;1.08;;;19.10;99.90;;;;;;5067871;28;20286;-74
2023/08/01 13:10:30;;;;;;;9.63;1.50;;;19.20;99.90;;;;;;5066860;28;20224;-74
2023/08/01 13:13:14;;;;;;;5.05;1.00;;;19.30;99.90;;;;;;5063590;28;20267;-74
2023/08/01 13:15:58;;;;;;;6.07;1.13;;;19.30;99.90;;;;;;5064752;28;20194;-71
2023/08/01 13:18:47;;;;;;;2.95;1.52;;;19.30;99.90;;;;;;5065458;28;20268;-73
2023/08/01 13:21:33;;;;;;;3.03;0.80;;;19.30;99.90;;;;;;5064654;28;20225;-74
2023/08/01 13:24:17;;;;;;;2.50;0.80;;;19.30;99.90;;;;;;5063137;28;20233;-74
2023/08/01 13:27:02;;;;;;;3.65;0.90;;;19.30;99.90;;;;;;5064813;28;20205;-72
2023/08/01 13:29:51;;;;;;;3.22;0.73;;;19.30;99.90;;;;;;5065954;28;20236;-73
2023/08/01 13:32:36;;;;;;;5.22;0.60;;;19.40;99.90;;;;;;5063325;28;20194;-72
2023/08/01 13:35:20;;;;;;;1.95;0.60;;;19.40;99.90;;;;;;5065565;28;20285;-74
2023/08/01 13:38:07;;;;;;;2.65;0.80;;;19.50;99.90;;;;;;5065128;28;20666;-71
2023/08/01 13:40:51;;;;;;;2.75;0.88;;;19.60;99.90;;;;;;5064480;28;20193;-73
2023/08/01 13:43:35;;;;;;;2.10;0.93;;;19.60;99.90;;;;;;5065364;28;20236;-72
2023/08/01 13:46:19;;;;;;;4.45;0.82;;;19.60;99.90;;;;;;5063915;28;20700;-71
2023/08/01 13:49:04;;;;;;;5.38;0.90;;;19.60;99.90;;;;;;5064207;28;20218;-70
2023/08/01 13:51:48;;;;;;;1.63;0.80;;;19.70;99.90;;;;;;5065060;28;20607;-74
2023/08/01 13:54:33;;;;;;;3.95;1.05;;;19.80;99.90;;;;;;5065154;28;20186;-71
2023/08/01 13:57:17;;;;;;;2.22;0.85;;;19.80;99.90;;;;;;5062342;28;20529;-72
2023/08/01 14:00:03;;;;;;;5.00;1.27;;;19.90;99.90;;;;;;5061111;28;20216;-73
2023/08/01 14:02:50;;;;;;;5.10;0.88;;;19.90;99.90;;;;;;5062928;28;20197;-73
2023/08/01 14:05:35;;;;;;;3.08;1.00;;;20.00;99.90;;;;;;5062970;28;20723;-72
2023/08/01 14:08:19;;;;;;;1.17;0.80;;;20.00;99.90;;;;;;5062992;28;20284;-73
2023/08/01 14:11:04;;;;;;;2.47;0.65;;;20.10;99.90;;;;;;5063861;28;20634;-74
2023/08/01 14:13:48;;;;;;;4.72;0.93;;;20.10;99.90;;;;;;5064372;28;20241;-73
2023/08/01 14:16:32;;;;;;;2.85;0.80;;;20.10;99.90;;;;;;5063558;28;20212;-72
2023/08/01 14:19:17;;;;;;;4.55;1.27;;;20.00;99.90;;;;;;5064105;28;20229;-72
2023/08/01 14:22:01;;;;;;;2.72;0.98;;;19.90;99.90;;;;;;5063515;28;20291;-70
2023/08/01 14:24:45;;;;;;;2.95;0.82;;;19.90;99.90;;;;;;5062759;28;20188;-71
2023/08/01 14:27:29;;;;;;;1.85;0.90;;;19.90;99.90;;;;;;5064049;28;20213;-73
2023/08/01 14:30:13;;;;;;;1.13;0.70;;;19.90;99.90;;;;;;5068172;28;20201;-72
2023/08/01 14:33:02;;;;;;;3.00;1.25;;;19.80;99.90;;;;;;5068350;28;20236;-72
2023/08/01 14:35:49;;;;;;;4.38;1.00;;;19.80;99.90;;;;;;5067668;28;20236;-72
2023/08/01 14:38:33;;;;;;;1.95;1.02;;;19.70;99.90;;;;;;5069372;28;20218;-71
2023/08/01 14:41:18;;;;;;;1.23;0.90;;;19.70;99.90;;;;;;5068015;28;20248;-72
2023/08/01 14:44:02;;;;;;;4.97;1.10;;;19.60;99.90;;;;;;5067344;28;20182;-73
2023/08/01 14:46:46;;;;;;;5.72;1.10;;;19.70;99.90;;;;;;5066753;28;20762;-72
2023/08/01 14:49:30;;;;;;;3.30;1.40;;;19.70;99.90;;;;;;5067398;28;20280;-73
2023/08/01 14:52:14;;;;;;;4.38;1.13;;;19.80;99.90;;;;;;5067830;28;20789;-72
2023/08/01 14:54:59;;;;;;;4.88;1.30;;;19.90;99.90;;;;;;5069290;28;20678;-72
2023/08/01 14:57:43;;;;;;;9.68;1.30;;;19.90;99.90;;;;;;5068089;28;20287;-73
2023/08/01 15:00:27;;;;;;;3.50;1.10;;;19.90;99.90;;;;;;5063339;28;20191;-74
2023/08/01 15:03:11;;;;;;;6.63;1.15;;;19.80;99.90;;;;;;5072771;28;20232;-73
2023/08/01 15:05:55;;;;;;;4.68;1.27;;;19.50;99.90;;;;;;5060672;28;20208;-74
2023/08/01 15:08:39;;;;;;;4.07;1.10;;;19.30;99.90;;;;;;5068507;28;20927;-73
2023/08/01 15:11:24;;;;;;;2.70;0.95;;;19.10;99.90;;;;;;5066481;28;20193;-71
2023/08/01 15:14:08;;;;;;;1.45;0.90;;;18.90;99.90;;;;;;5067074;28;20241;-73
2023/08/01 15:16:52;;;;;;;4.85;1.65;;;18.90;99.90;;;;;;5065876;28;20220;-73
2023/08/01 15:19:37;;;;;;;5.22;1.50;;;18.90;99.90;;;;;;5065825;28;20668;-74
2023/08/01 15:22:21;;;;;;;4.50;1.35;;;18.90;99.90;;;;;;5067090;28;20198;-72
2023/08/01 15:25:06;;;;;;;3.50;1.25;;;18.90;99.90;;;;;;5064743;28;20267;-72
2023/08/01 15:27:50;;;;;;;4.45;1.60;;;19.00;99.90;;;;;;5064592;28;20222;-75
2023/08/01 15:30:34;;;;;;;4.75;1.55;;;19.00;99.90;;;;;;5066198;28;20194;-73
2023/08/01 15:33:18;;;;;;;5.45;1.60;;;19.00;99.90;;;;;;5066860;28;20194;-73
2023/08/01 15:36:07;;;;;;;3.83;2.08;;;19.00;99.90;;;;;;5067336;28;20198;-73
2023/08/01 15:38:51;;;;;;;3.72;1.30;;;19.10;99.90;;;;;;5065294;28;20217;-74
2023/08/01 15:41:35;;;;;;;3.85;1.90;;;19.10;99.90;;;;;;5063002;28;20186;-73
2023/08/01 15:44:19;;;;;;;1.83;1.40;;;19.10;99.90;;;;;;5067986;28;20262;-74
2023/08/01 15:47:04;;;;;;;4.57;1.58;;;19.10;99.90;;;;;;5065783;28;20262;-71
2023/08/01 15:49:48;;;;;;;4.65;1.50;;;19.10;99.90;;;;;;5065870;28;20182;-72
2023/08/01 15:52:33;;;;;;;3.55;1.65;;;19.10;99.90;;;;;;5067061;28;20198;-70
2023/08/01 15:55:17;;;;;;;5.45;1.85;;;19.10;99.90;;;;;;5066488;28;20198;-71
2023/08/01 15:58:01;;;;;;;4.70;1.67;;;19.10;99.90;;;;;;5068973;28;20260;-73
2023/08/01 16:00:45;;;;;;;6.88;1.92;;;19.00;99.90;;;;;;5064205;28;20213;-71
2023/08/01 16:03:29;;;;;;;5.25;1.65;;;19.00;99.90;;;;;;5064791;28;20724;-72
2023/08/01 16:06:14;;;;;;;1.65;1.00;;;18.90;99.90;;;;;;5066487;28;20208;-75
2023/08/01 16:08:58;;;;;;;1.63;0.70;;;18.90;99.90;;;;;;5063422;28;20287;-72
2023/08/01 16:11:42;;;;;;;3.20;0.85;;;18.90;99.90;;;;;;5064736;28;20227;-73
2023/08/01 16:14:27;;;;;;;2.83;0.90;;;18.80;99.90;;;;;;5066727;28;20274;-72
2023/08/01 16:17:11;;;;;;;2.78;0.93;;;18.70;99.90;;;;;;5065389;28;20451;-72
2023/08/01 16:19:55;;;;;;;2.08;1.00;;;18.70;99.90;;;;;;5062707;28;20654;-72
2023/08/01 16:22:39;;;;;;;4.32;1.00;;;18.70;99.90;;;;;;5064491;28;20255;-71
2023/08/01 16:25:24;;;;;;;1.55;0.88;;;18.70;99.90;;;;;;5063504;28;20226;-73
2023/08/01 16:28:08;;;;;;;2.10;1.02;;;18.70;99.90;;;;;;5066319;28;20293;-73
2023/08/01 16:30:53;;;;;;;4.28;1.60;;;18.70;99.90;;;;;;5062614;28;20228;-74
2023/08/01 16:33:37;;;;;;;2.13;0.90;;;18.70;99.90;;;;;;5062899;28;20260;-74
2023/08/01 16:36:21;;;;;;;3.22;1.17;;;18.70;99.90;;;;;;5060366;28;20411;-74
2023/08/01 16:39:06;;;;;;;3.08;1.10;;;18.70;99.90;;;;;;5064106;28;20240;-73
2023/08/01 16:41:50;;;;;;;6.32;1.40;;;18.70;99.90;;;;;;5065196;28;20182;-73
2023/08/01 16:44:35;;;;;;;3.50;1.27;;;18.70;99.90;;;;;;5063933;28;20419;-73
2023/08/01 16:47:19;;;;;;;5.45;1.00;;;18.80;99.90;;;;;;5067608;28;20212;-76
2023/08/01 16:50:05;;;;;;;4.20;1.23;;;18.70;99.90;;;;;;5069374;28;20213;-72
2023/08/01 16:52:49;;;;;;;3.78;1.10;;;18.70;99.90;;;;;;5065664;28;20185;-72
2023/08/01 16:55:33;;;;;;;3.72;1.10;;;18.80;99.90;;;;;;5066433;28;20230;-74
2023/08/01 16:58:18;;;;;;;5.55;1.23;;;18.80;99.90;;;;;;5064495;28;20546;-75
2023/08/01 17:01:02;;;;;;;3.97;1.10;;;18.80;99.90;;;;;;5064504;28;20661;-74
2023/08/01 17:03:46;;;;;;;3.63;1.40;;;18.90;99.90;;;;;;5066347;28;20906;-73
2023/08/01 17:06:30;;;;;;;6.15;1.60;;;19.00;99.90;;;;;;5062715;28;20824;-71
2023/08/01 17:09:15;;;;;;;3.65;1.50;;;19.00;99.90;;;;;;5066118;28;20268;-74
2023/08/01 17:12:02;;;;;;;4.95;1.48;;;;;;;;;;5064526;28;20236;-73
2023/08/01 17:14:47;;;;;;;3.85;1.23;;;;;;;;;;5062940;28;20194;-72
2023/08/01 17:17:32;;;;;;;5.18;1.27;;;;;;;;;;5065142;28;20237;-72
2023/08/01 17:20:16;;;;;;;4.85;1.25;;;;;;;;;;5066298;28;20689;-73
2023/08/01 17:23:03;;;;;;;3.00;1.13;;;;;;;;;;5060661;28;20232;-74
2023/08/01 17:25:47;;;;;;;5.63;1.30;;;18.80;99.90;;;;;;5065062;28;20563;-74
2023/08/01 17:28:32;;;;;;;2.65;0.93;;;19.00;99.90;;;;;;5065215;28;20314;-76
2023/08/01 17:31:22;;;;;;;3.33;1.10;;;;;;;;;;5064989;28;20248;-71
2023/08/01 17:34:10;;;;;;;4.57;1.33;;;18.60;99.90;;;;;;5064141;28;20213;-73
2023/08/01 17:36:54;;;;;;;2.08;1.00;;;;;;;;;;5066785;28;20229;-71
2023/08/01 17:39:39;;;;;;;4.05;1.25;;;;;;;;;;5065980;28;20217;-74
2023/08/01 17:42:25;;;;;;;3.70;0.88;;;;;;;;;;5065220;28;20229;-73
2023/08/01 17:45:11;;;;;;;5.50;1.20;;;18.20;99.90;;;;;;5062976;28;20308;-73
2023/08/01 17:47:57;;;;;;;2.42;1.02;;;18.20;99.90;;;;;;5064354;28;20283;-71
2023/08/01 17:50:43;;;;;;;3.17;0.88;;;;;;;;;;5062038;28;20239;-72
2023/08/01 17:53:28;;;;;;;2.90;1.20;;;;;;;;;;5063670;28;20321;-73
2023/08/01 17:56:14;;;;;;;3.20;1.35;;;18.00;99.90;;;;;;5067934;28;20194;-75
2023/08/01 17:58:58;;;;;;;3.10;1.10;;;18.00;99.90;;;;;;5063827;28;20743;-73
2023/08/01 18:01:42;;;;;;;2.55;0.98;;;17.80;99.90;;;;;;5064571;28;20233;-72
2023/08/01 18:04:27;;;;;;;1.73;1.13;;;17.80;99.90;;;;;;5062436;28;20220;-71
2023/08/01 18:07:13;;;;;;;2.03;0.85;;;;;;;;;;5065249;28;20201;-73
2023/08/01 18:09:58;;;;;;;2.55;0.95;;;;;;;;;;5062424;28;20181;-73
2023/08/01 18:12:46;;;;;;;1.75;0.80;;;17.50;99.90;;;;;;5064679;28;20221;-70
2023/08/01 18:15:38;;;;;;;3.75;0.90;;;;;;;;;;5059572;28;20352;-73
2023/08/01 18:18:24;;;;;;;2.75;1.08;;;;;;;;;;5060551;28;20233;-75
2023/08/01 18:21:10;;;;;;;1.80;0.70;;;17.10;99.90;;;;;;5063369;28;20185;-73
2023/08/01 18:23:57;;;;;;;0.52;0.50;;;;;;;;;;5064099;28;20190;-71
2023/08/01 18:26:41;;;;;;;2.45;0.80;;;17.10;99.90;;;;;;5064842;28;20194;-73
2023/08/01 18:29:25;;;;;;;2.03;0.80;;;17.00;99.90;;;;;;5064561;28;20348;-70
2023/08/01 18:32:10;;;;;;;4.53;1.15;;;17.20;99.90;;;;;;5064440;28;20240;-70
2023/08/01 18:34:58;;;;;;;3.40;0.90;;;17.20;99.90;;;;;;5063518;28;20205;-72
2023/08/01 18:37:42;;;;;;;2.42;0.85;;;17.10;99.90;;;;;;5062762;28;20874;-72
2023/08/01 18:40:27;;;;;;;1.30;1.05;;;17.10;99.90;;;;;;5064153;28;20190;-71
2023/08/01 18:43:11;;;;;;;4.40;0.98;;;17.10;99.90;;;;;;5064310;28;20198;-73
2023/08/01 18:45:55;;;;;;;1.73;1.00;;;17.10;99.90;;;;;;5063460;28;20186;-73
2023/08/01 18:48:40;;;;;;;2.60;1.10;;;17.00;99.90;;;;;;5062017;28;20221;-72
2023/08/01 18:51:24;;;;;;;2.50;1.00;;;17.00;99.90;;;;;;5060891;28;20233;-71
2023/08/01 18:54:08;;;;;;;0.80;0.80;;;17.00;99.90;;;;;;5063985;28;20187;-73
2023/08/01 18:56:52;;;;;;;2.95;1.20;;;17.00;99.90;;;;;;5064428;28;20847;-71
2023/08/01 18:59:37;;;;;;;5.90;1.25;;;17.00;99.90;;;;;;5065368;28;20230;-73
2023/08/01 19:02:22;;;;;;;2.50;1.10;;;17.00;99.90;;;;;;5063853;28;20209;-71
2023/08/01 19:05:08;;;;;;;2.53;1.10;;;16.80;99.90;;;;;;5061381;28;20198;-73
2023/08/01 19:07:53;;;;;;;2.63;1.10;;;17.00;99.90;;;;;;5063603;28;20294;-74
2023/08/01 19:10:37;;;;;;;2.00;1.10;;;16.90;99.90;;;;;;5061848;28;20182;-73
2023/08/01 19:13:21;;;;;;;3.17;1.45;;;16.90;99.90;;;;;;5060132;28;20183;-71
2023/08/01 19:16:05;;;;;;;3.95;1.38;;;16.90;99.90;;;;;;5065281;28;20197;-72
2023/08/01 19:18:50;;;;;;;3.80;1.20;;;16.80;99.90;;;;;;5066848;28;20225;-70
2023/08/01 19:21:34;;;;;;;2.35;1.30;;;16.90;99.90;;;;;;5067946;28;20620;-73
2023/08/01 19:24:21;;;;;;;1.90;1.20;;;16.80;99.90;;;;;;5065465;28;20330;-72
2023/08/01 19:27:07;;;;;;;3.13;1.48;;;16.70;99.90;;;;;;5067007;28;20556;-72
2023/08/01 19:29:52;;;;;;;4.40;1.10;;;16.70;99.90;;;;;;5065906;28;20217;-72
2023/08/01 19:32:36;;;;;;;2.42;1.30;;;16.70;99.90;;;;;;5061806;28;20340;-73
2023/08/01 19:35:21;;;;;;;2.60;1.50;;;16.60;99.90;;;;;;5067871;28;20185;-73
2023/08/01 19:38:05;;;;;;;2.08;1.20;;;16.50;99.90;;;;;;5063495;28;20345;-71
2023/08/01 19:40:50;;;;;;;2.10;1.20;;;16.50;99.90;;;;;;5065138;28;20685;-73
2023/08/01 19:43:35;;;;;;;2.17;1.30;;;16.50;99.90;;;;;;5066334;28;20216;-71
2023/08/01 19:46:20;;;;;;;6.35;1.58;;;16.50;99.90;;;;;;5063593;28;20204;-73
2023/08/01 19:49:04;;;;;;;2.97;1.20;;;16.50;99.90;;;;;;5064147;28;20217;-71
2023/08/01 19:51:48;;;;;;;2.87;1.30;;;16.50;99.90;;;;;;5066321;28;20313;-72
2023/08/01 19:54:33;;;;;;;5.10;1.13;;;16.50;99.90;;;;;;5066547;28;20422;-71
2023/08/01 19:57:17;;;;;;;2.13;1.20;;;16.50;99.90;;;;;;5067076;28;20348;-72
2023/08/01 20:00:02;;;;;;;2.83;1.10;;;16.40;99.90;;;;;;5064872;28;20210;-71
2023/08/01 20:02:46;;;;;;;2.75;1.13;;;16.30;99.90;;;;;;5066137;28;20186;-74
2023/08/01 20:05:31;;;;;;;1.37;0.90;;;16.30;99.90;;;;;;5065606;28;20237;-70
2023/08/01 20:08:15;;;;;;;2.53;1.10;;;16.30;99.90;;;;;;5066835;28;20255;-73
2023/08/01 20:11:01;;;;;;;2.90;1.13;;;16.20;99.90;;;;;;5065525;28;20198;-73
2023/08/01 20:13:45;;;;;;;1.97;1.30;;;16.20;99.90;;;;;;5062077;28;20194;-72
2023/08/01 20:16:29;;;;;;;3.07;1.20;;;16.20;99.90;;;;;;5063067;28;20236;-74
2023/08/01 20:19:14;;;;;;;3.33;1.20;;;16.10;99.90;;;;;;5065250;28;20221;-71
2023/08/01 20:21:58;;;;;;;3.17;1.10;;;16.10;99.90;;;;;;5064933;28;20578;-73
2023/08/01 20:24:42;;;;;;;2.80;1.40;;;16.10;99.90;;;;;;5065228;28;20193;-71
2023/08/01 20:27:26;;;;;;;3.27;1.30;;;16.10;99.90;;;;;;5064209;28;20259;-72
2023/08/01 20:30:11;;;;;;;3.47;1.73;;;16.10;99.90;;;;;;5066095;28;20260;-71
2023/08/01 20:32:55;;;;;;;3.17;1.90;;;16.10;99.90;;;;;;5064682;28;20226;-73